Time;durP1;ratioP1;P1;durP2;ratioP2;P2;SDS_P1;SDS_P2;PMS_P1;PMS_P2;Temp;Humidity;BMP_temperature;BMP_pressure;BME280_temperature;BME280_humidity;BME280_pressure;Samples;Min_cycle;Max_cycle;Signal;HPM_P1;HPM_P2
2022/11/15 00:01:32;;;;;;;8.63;6.45;;;;;;;4.47;77.74;100661.69;1691271;84;21253;-74
2022/11/15 00:04:17;;;;;;;7.78;5.62;;;;;;;4.62;77.40;100659.78;1682582;83;20995;-75
2022/11/15 00:07:04;;;;;;;8.85;6.08;;;;;;;4.61;77.30;100651.98;1683185;84;21093;-75
2022/11/15 00:09:49;;;;;;;8.88;7.15;;;;;;;4.58;76.96;100650.87;1697158;84;21554;-76
2022/11/15 00:12:35;;;;;;;9.78;7.83;;;;;;;4.55;76.91;100643.21;1696656;84;21043;-80
2022/11/15 00:15:20;;;;;;;11.50;7.70;;;;;;;4.52;77.02;100636.38;1686466;84;21307;-76
2022/11/15 00:18:06;;;;;;;14.10;8.50;;;;;;;4.49;76.98;100629.52;1690381;83;21513;-77
2022/11/15 00:20:50;;;;;;;10.08;7.78;;;;;;;4.57;76.77;100637.37;1676697;83;21085;-77
2022/11/15 00:23:37;;;;;;;13.05;8.93;;;;;;;4.66;76.55;100631.47;1688823;83;21056;-76
2022/11/15 00:26:21;;;;;;;11.80;8.00;;;;;;;4.57;76.45;100618.46;1684149;83;21132;-74
2022/11/15 00:29:07;;;;;;;15.72;8.88;;;;;;;4.46;76.68;100621.86;1709806;82;21170;-75
2022/11/15 00:31:52;;;;;;;11.57;9.18;;;;;;;4.35;76.91;100605.98;1719423;81;21058;-74
2022/11/15 00:34:38;;;;;;;11.85;8.50;;;;;;;4.29;77.27;100605.09;1745552;81;21552;-74
2022/11/15 00:37:24;;;;;;;17.52;8.25;;;;;;;4.25;77.34;100597.89;1758916;81;21586;-77
2022/11/15 00:40:12;;;;;;;12.70;7.90;;;;;;;4.34;77.33;100595.08;1744859;81;21032;-76
2022/11/15 00:42:58;;;;;;;11.60;7.25;;;;;;;4.48;77.05;100589.70;1738166;81;21916;-76
2022/11/15 00:45:42;;;;;;;12.78;8.68;;;;;;;4.47;76.95;100597.22;1720601;81;21064;-75
2022/11/15 00:48:27;;;;;;;11.15;6.45;;;;;;;4.44;76.99;100589.55;1728153;81;21033;-74
2022/11/15 00:51:12;;;;;;;9.35;7.28;;;;;;;4.38;76.89;100595.70;1733011;81;21023;-74
2022/11/15 00:53:59;;;;;;;10.60;7.15;;;;;;;4.31;76.95;100592.19;1734153;81;21065;-74
2022/11/15 00:56:44;;;;;;;9.83;7.65;;;;;;;4.37;77.03;100586.98;1735968;81;21385;-73
2022/11/15 00:59:29;;;;;;;7.90;5.70;;;;;;;4.50;76.89;100585.63;1746905;81;21111;-74
2022/11/15 01:02:14;;;;;;;11.22;6.62;;;;;;;4.44;76.94;100593.50;1744636;81;21059;-75
2022/11/15 01:04:59;;;;;;;9.88;6.33;;;;;;;4.33;76.67;100582.89;1762330;81;21580;-77
2022/11/15 01:07:44;;;;;;;7.25;6.28;;;;;;;4.28;76.71;100587.13;1711584;82;21104;-75
2022/11/15 01:10:29;;;;;;;8.38;6.40;;;;;;;4.28;76.72;100581.05;1717341;82;22162;-74
2022/11/15 01:13:16;;;;;;;7.62;6.12;;;;;;;4.30;76.88;100585.23;1687725;84;21120;-76
2022/11/15 01:16:12;;;;;;;8.80;6.15;;;;;;;4.43;76.68;100574.70;1721565;82;21497;-75
2022/11/15 01:18:56;;;;;;;7.47;6.35;;;;;;;4.40;76.84;100567.02;1710058;82;21040;-75
2022/11/15 01:33:46;;;;;;;9.28;6.08;;;;;;;4.28;77.14;100556.05;1729147;81;21107;-76
2022/11/15 01:36:31;;;;;;;9.65;6.28;;;;;;;4.21;77.46;100560.91;1727388;81;21065;-75
2022/11/15 01:39:16;;;;;;;7.72;6.05;;;;;;;4.14;77.51;100555.22;1734768;81;21459;-74
2022/11/15 01:42:02;;;;;;;10.65;6.62;;;;;;;4.09;77.28;100552.55;1734900;81;21316;-75
2022/11/15 01:44:51;;;;;;;8.20;5.03;;;;;;;4.02;77.31;100546.02;1759057;81;21079;-75
2022/11/15 01:47:39;;;;;;;6.45;5.35;;;;;;;4.07;77.60;100542.61;1734670;81;21075;-74
2022/11/15 01:50:29;;;;;;;7.22;5.45;;;;;;;4.20;77.27;100532.08;1752097;81;21099;-76
2022/11/15 01:53:15;;;;;;;7.07;5.67;;;;;;;4.19;77.32;100533.88;1755152;81;21052;-75
2022/11/15 01:56:03;;;;;;;8.88;5.62;;;;;;;4.09;77.53;100527.08;1750304;81;21586;-76
2022/11/15 01:58:49;;;;;;;8.60;5.80;;;;;;;4.06;77.85;100526.00;1752699;81;21119;-73
2022/11/15 02:01:33;;;;;;;6.12;4.97;;;;;;;4.04;78.11;100522.64;1753985;81;20985;-74
2022/11/15 02:04:27;;;;;;;7.30;5.62;;;;;;;4.12;78.13;100522.10;1720612;82;21064;-74
2022/11/15 02:07:16;;;;;;;8.88;5.70;;;;;;;4.18;77.94;100519.52;1737710;81;20997;-75
2022/11/15 02:10:09;;;;;;;7.08;5.83;;;;;;;4.15;78.04;100515.30;1745214;81;21084;-73
2022/11/15 02:12:55;;;;;;;8.08;6.25;;;;;;;4.11;78.15;100512.06;1745753;81;21028;-73
2022/11/15 02:15:50;;;;;;;9.83;6.55;;;;;;;4.08;78.35;100510.95;1753674;81;21044;-75
2022/11/15 02:18:38;;;;;;;7.50;4.83;;;;;;;4.16;78.29;100506.95;1754670;80;21005;-75
2022/11/15 02:22:00;;;;;;;8.55;5.83;;;;;;;4.29;77.84;100495.93;1758869;81;21096;-75
2022/11/15 02:25:24;;;;;;;7.58;5.85;;;;;;;4.29;77.83;100499.39;1742256;81;21232;-74
2022/11/15 02:28:36;;;;;;;7.87;5.85;;;;;;;4.30;77.90;100491.85;1746271;81;21080;-73
2022/11/15 02:31:43;;;;;;;9.98;6.08;;;;;;;4.27;77.88;100495.20;1716785;81;21513;-76
2022/11/15 02:34:40;;;;;;;9.43;6.10;;;;;;;4.25;77.88;100490.50;1735441;81;21104;-74
2022/11/15 02:40:20;;;;;;;7.40;6.30;;;;;;;4.47;77.51;100495.91;1841356;77;24567;-74
2022/11/15 02:47:12;;;;;;;8.63;6.90;;;;;;;4.31;77.54;100486.14;1834255;77;21217;-73
2022/11/15 02:49:14;;;;;;;7.47;6.33;;;;;;;4.23;77.70;100485.82;1833202;77;20948;-75
2022/11/15 02:51:59;;;;;;;8.95;6.22;;;;;;;4.18;77.97;100480.06;1798132;77;21469;-75
2022/11/15 02:54:57;;;;;;;10.60;6.45;;;;;;;4.26;78.02;100484.30;1844592;76;20996;-75
2022/11/15 02:58:08;;;;;;;11.38;6.83;;;;;;;4.29;77.85;100477.52;1853598;77;20891;-74
2022/11/15 03:01:07;;;;;;;12.00;6.78;;;;;;;4.22;78.07;100476.27;1820279;78;21147;-76
2022/11/15 03:04:10;;;;;;;8.98;7.12;;;;;;;4.19;78.31;100476.47;1829648;77;21024;-76
2022/11/15 03:07:08;;;;;;;9.93;7.30;;;;;;;4.15;78.62;100462.70;1827886;78;21017;-77
2022/11/15 03:10:11;;;;;;;11.60;6.95;;;;;;;4.22;78.66;100466.58;1801549;77;21728;-74
2022/11/15 03:13:01;;;;;;;8.20;6.65;;;;;;;4.31;78.68;100471.67;1814634;77;21492;-75
2022/11/15 03:15:55;;;;;;;9.85;7.80;;;;;;;4.21;78.61;100459.66;1833695;76;21128;-76
2022/11/15 03:18:44;;;;;;;9.65;8.05;;;;;;;4.13;78.93;100452.31;1835061;77;21074;-76
2022/11/15 03:21:31;;;;;;;10.03;7.00;;;;;;;4.06;79.32;100453.69;1848469;76;21019;-74
2022/11/15 03:24:16;;;;;;;9.28;7.00;;;;;;;4.12;79.59;100449.30;1840557;77;22113;-74
2022/11/15 03:27:01;;;;;;;9.98;7.00;;;;;;;4.19;79.46;100443.15;1805559;78;21479;-75
2022/11/15 03:29:50;;;;;;;10.00;7.37;;;;;;;4.14;79.56;100436.88;1778330;78;21472;-75
2022/11/15 03:32:40;;;;;;;9.00;7.53;;;;;;;4.07;79.57;100436.95;1817762;78;21224;-75
2022/11/15 03:35:27;;;;;;;8.58;6.58;;;;;;;3.99;79.36;100437.14;1838949;75;21544;-74
2022/11/15 03:38:25;;;;;;;9.38;7.03;;;;;;;4.01;79.39;100434.76;1844182;75;21015;-76
2022/11/15 03:41:19;;;;;;;10.45;7.87;;;;;;;4.05;79.30;100428.33;1847815;75;21493;-76
2022/11/15 03:44:16;;;;;;;9.45;7.22;;;;;;;3.93;79.47;100414.75;1819943;78;21228;-76
2022/11/15 03:47:08;;;;;;;10.10;8.25;;;;;;;3.85;79.75;100414.46;1837923;75;21522;-76
2022/11/15 03:50:01;;;;;;;11.28;8.28;;;;;;;3.81;80.09;100420.89;1846657;75;21045;-75
2022/11/15 03:52:47;;;;;;;13.30;9.18;;;;;;;3.86;79.75;100410.88;1805922;78;21017;-75
2022/11/15 03:55:33;;;;;;;12.05;9.30;;;;;;;3.73;80.47;100423.58;1829757;77;21078;-74
2022/11/15 03:58:18;;;;;;;11.35;9.30;;;;;;;3.62;81.09;100427.41;1836591;76;22649;-76
2022/11/15 04:01:05;;;;;;;11.95;9.68;;;;;;;3.62;81.32;100414.28;1829078;77;20993;-74
2022/11/15 04:03:50;;;;;;;13.53;10.65;;;;;;;3.61;81.71;100407.36;1833336;76;21010;-76
2022/11/15 04:06:36;;;;;;;13.95;11.12;;;;;;;3.58;81.90;100404.10;1835489;76;21580;-76
2022/11/15 04:09:21;;;;;;;15.93;10.00;;;;;;;3.52;82.08;100406.20;1812439;78;21020;-76
2022/11/15 04:12:07;;;;;;;14.15;10.55;;;;;;;3.58;81.92;100402.31;1811230;77;21049;-76
2022/11/15 04:15:06;;;;;;;12.80;10.38;;;;;;;3.69;81.83;100407.66;1808039;77;20969;-75
2022/11/15 04:17:52;;;;;;;17.73;12.60;;;;;;;3.66;81.86;100389.95;1828148;78;21052;-75
2022/11/15 04:24:25;;;;;;;;;;;;;;;3.52;82.45;100389.61;1843746;76;21017;-75
2022/11/15 04:26:33;;;;;;;18.92;14.38;;;;;;;3.60;82.23;100380.70;1840425;76;21338;-76
2022/11/15 04:29:36;;;;;;;20.17;14.45;;;;;;;3.61;82.21;100385.03;1823182;77;21823;-76
2022/11/15 04:32:21;;;;;;;19.57;14.30;;;;;;;3.56;82.23;100378.41;1799545;77;21057;-74
2022/11/15 04:35:07;;;;;;;20.23;13.25;;;;;;;3.51;82.64;100383.97;1804385;78;21037;-74
2022/11/15 04:37:52;;;;;;;19.00;15.05;;;;;;;3.57;82.62;100383.53;1816009;77;21043;-75
2022/11/15 04:40:37;;;;;;;21.82;13.40;;;;;;;3.54;82.34;100368.84;1824071;77;21229;-73
2022/11/15 04:43:23;;;;;;;18.60;13.90;;;;;;;3.54;82.34;100368.84;1807390;78;21057;-74
2022/11/15 04:46:08;;;;;;;21.52;14.35;;;;;;;3.51;82.73;100372.98;1811157;77;21099;-74
2022/11/15 04:48:54;;;;;;;20.30;14.03;;;;;;;3.52;82.82;100362.85;1820854;77;20998;-74
2022/11/15 04:51:39;;;;;;;21.57;14.00;;;;;;;3.68;82.62;100359.98;1810616;77;21073;-75
2022/11/15 04:54:24;;;;;;;22.85;15.40;;;;;;;3.72;82.49;100361.43;1790843;79;21158;-75
2022/11/15 04:57:09;;;;;;;21.48;15.50;;;;;;;3.73;82.44;100352.61;1787405;79;21061;-75
2022/11/15 04:59:54;;;;;;;19.60;14.05;;;;;;;3.73;82.08;100358.36;1787893;79;21100;-74
2022/11/15 05:05:43;;;;;;;;;;;;;;;3.81;81.56;100365.69;1775072;79;21670;-76
2022/11/15 05:08:30;;;;;;;18.17;13.95;;;;;;;3.73;81.60;100352.61;1764080;79;20991;-75
2022/11/15 05:11:14;;;;;;;26.48;15.40;;;;;;;3.66;81.91;100355.79;1768000;80;21392;-75
2022/11/15 05:14:00;;;;;;;18.85;13.80;;;;;;;3.60;82.34;100352.28;1815483;77;21022;-74
2022/11/15 05:16:46;;;;;;;23.12;14.47;;;;;;;3.63;82.27;100350.28;1768614;81;21095;-76
2022/11/15 05:19:31;;;;;;;22.87;14.75;;;;;;;3.74;81.92;100347.70;1800051;79;21072;-74
2022/11/15 05:22:17;;;;;;;22.50;16.07;;;;;;;3.73;81.77;100341.27;1816771;78;21141;-75
2022/11/15 05:25:04;;;;;;;23.30;15.32;;;;;;;3.68;81.50;100349.46;1824871;78;21068;-75
2022/11/15 05:27:49;;;;;;;24.82;17.00;;;;;;;3.60;81.60;100335.20;1817477;78;20998;-76
2022/11/15 05:30:36;;;;;;;30.88;19.67;;;;;;;3.63;81.67;100348.11;1747260;79;21087;-75
2022/11/15 05:33:21;;;;;;;26.05;17.20;;;;;;;3.59;81.65;100346.17;1819524;77;21033;-73
2022/11/15 05:36:38;;;;;;;24.45;17.00;;;;;;;3.49;81.85;100349.09;1827124;78;21136;-75
2022/11/15 05:39:23;;;;;;;21.93;15.30;;;;;;;3.45;82.08;100331.86;1810195;77;21029;-75
2022/11/15 05:42:12;;;;;;;22.15;15.93;;;;;;;3.54;81.81;100326.80;1825639;77;21032;-74
2022/11/15 05:44:57;;;;;;;29.25;17.67;;;;;;;3.61;81.58;100326.36;1822666;78;21009;-72
2022/11/15 05:47:42;;;;;;;28.35;19.90;;;;;;;3.58;81.67;100323.97;1810719;77;21079;-74
2022/11/15 05:50:27;;;;;;;29.25;19.20;;;;;;;3.52;81.83;100316.88;1823499;77;21808;-74
2022/11/15 05:53:14;;;;;;;28.98;19.07;;;;;;;3.61;81.85;100331.16;1822548;78;21558;-72
2022/11/15 05:55:59;;;;;;;29.92;20.48;;;;;;;3.67;81.64;100313.64;1835899;76;20986;-74
2022/11/15 05:58:45;;;;;;;32.70;22.20;;;;;;;3.65;81.78;100320.80;1842204;76;21056;-74
2022/11/15 06:01:30;;;;;;;35.23;19.37;;;;;;;3.61;82.06;100316.72;1850223;77;21049;-74
2022/11/15 06:04:17;;;;;;;25.48;17.80;;;;;;;3.66;82.00;100317.20;1809744;77;22518;-75
2022/11/15 06:07:02;;;;;;;29.35;18.67;;;;;;;3.74;81.57;100315.34;1813098;77;21017;-73
2022/11/15 06:09:46;;;;;;;23.65;16.55;;;;;;;3.65;81.30;100313.36;1805831;77;21058;-74
2022/11/15 06:12:31;;;;;;;28.05;18.23;;;;;;;3.56;81.39;100312.25;1813535;77;22457;-73
2022/11/15 06:15:16;;;;;;;24.30;17.55;;;;;;;3.62;81.54;100305.23;1842514;76;21056;-73
2022/11/15 06:18:02;;;;;;;26.73;19.02;;;;;;;3.76;81.33;100306.04;1793933;78;21809;-73
2022/11/15 06:20:48;;;;;;;29.90;18.77;;;;;;;3.77;81.30;100306.38;1833287;78;21036;-72
2022/11/15 06:23:35;;;;;;;27.17;17.60;;;;;;;3.73;81.42;100311.87;1820026;78;21129;-74
2022/11/15 06:26:20;;;;;;;29.02;19.00;;;;;;;3.70;81.64;100298.13;1823808;78;21039;-75
2022/11/15 06:29:07;;;;;;;26.93;17.55;;;;;;;3.75;81.69;100299.95;1822070;78;21044;-74
2022/11/15 06:31:52;;;;;;;26.65;17.40;;;;;;;3.71;81.80;100303.27;1819053;76;21251;-75
2022/11/15 06:34:37;;;;;;;25.15;16.42;;;;;;;3.61;82.05;100299.63;1808928;76;21060;-75
2022/11/15 06:37:22;;;;;;;30.57;17.20;;;;;;;3.61;82.11;100295.69;1826549;76;21047;-75
2022/11/15 06:40:09;;;;;;;25.77;17.90;;;;;;;3.63;82.34;100304.30;1826641;78;21515;-76
2022/11/15 06:42:59;;;;;;;28.30;17.15;;;;;;;3.54;82.69;100308.89;1819388;78;21016;-73
2022/11/15 06:45:44;;;;;;;20.00;13.55;;;;;;;3.53;83.02;100308.06;1819870;78;21240;-72
2022/11/15 06:48:30;;;;;;;20.92;13.35;;;;;;;3.63;82.47;100295.11;1832886;78;20993;-74
2022/11/15 06:51:15;;;;;;;21.45;14.43;;;;;;;3.60;82.44;100296.62;1813772;77;20981;-73
2022/11/15 06:54:01;;;;;;;24.10;14.73;;;;;;;3.52;82.75;100300.28;1800628;78;21465;-75
2022/11/15 06:56:46;;;;;;;20.08;13.65;;;;;;;3.52;83.13;100312.94;1815055;78;21047;-74
2022/11/15 06:59:32;;;;;;;22.87;14.43;;;;;;;3.56;82.99;100295.66;1784948;77;21487;-75
2022/11/15 07:02:17;;;;;;;21.93;13.03;;;;;;;3.50;83.38;100297.76;1849901;76;21038;-73
2022/11/15 07:05:03;;;;;;;19.77;12.80;;;;;;;3.48;83.50;100301.45;1839458;76;21162;-78
2022/11/15 07:07:54;;;;;;;21.23;13.43;;;;;;;3.57;83.46;100296.00;1788704;78;21031;-77
2022/11/15 07:10:39;;;;;;;23.90;14.28;;;;;;;3.55;83.48;100288.22;1813533;77;20994;-77
2022/11/15 07:13:26;;;;;;;25.02;16.00;;;;;;;3.54;83.75;100280.00;1817244;77;21657;-76
2022/11/15 07:16:11;;;;;;;23.62;15.18;;;;;;;3.61;83.82;100286.95;1816750;77;20919;-78
2022/11/15 07:18:56;;;;;;;20.02;12.40;;;;;;;3.71;83.53;100278.30;1826617;77;21452;-78
2022/11/15 07:21:42;;;;;;;22.70;13.83;;;;;;;3.69;83.44;100285.46;1817071;77;20959;-78
2022/11/15 07:24:26;;;;;;;20.52;13.65;;;;;;;3.66;83.38;100275.64;1808498;78;21100;-78
2022/11/15 07:27:11;;;;;;;24.43;13.90;;;;;;;3.72;82.74;100274.71;1822802;78;21254;-78
2022/11/15 07:29:58;;;;;;;31.05;16.60;;;;;;;3.77;81.86;100274.85;1804408;78;21019;-78
2022/11/15 07:32:43;;;;;;;26.50;15.38;;;;;;;3.66;82.18;100263.34;1804139;77;21048;-78
2022/11/15 07:35:28;;;;;;;22.87;15.53;;;;;;;3.61;82.68;100275.13;1842119;77;21012;-76
2022/11/15 07:38:14;;;;;;;20.65;14.98;;;;;;;3.72;82.37;100267.31;1834804;77;20990;-78
2022/11/15 07:41:03;;;;;;;25.37;17.32;;;;;;;3.67;82.02;100263.72;1818135;77;21008;-78
2022/11/15 07:43:53;;;;;;;23.38;15.98;;;;;;;3.54;82.33;100267.69;1820480;77;21068;-79
2022/11/15 07:46:38;;;;;;;22.62;16.45;;;;;;;3.54;82.33;100267.69;1805555;78;21026;-78
2022/11/15 07:49:25;;;;;;;20.48;15.93;;;;;;;3.60;81.72;100249.81;1822417;78;21569;-77
2022/11/15 07:52:10;;;;;;;26.68;17.67;;;;;;;3.51;81.56;100252.62;1800848;77;21022;-77
2022/11/15 07:54:57;;;;;;;27.90;18.30;;;;;;;3.42;81.75;100249.33;1816818;78;22086;-78
2022/11/15 07:57:42;;;;;;;29.07;18.52;;;;;;;3.48;81.19;100263.36;1813062;77;21025;-78
2022/11/15 08:00:28;;;;;;;23.98;17.50;;;;;;;3.42;80.65;100258.07;1808193;78;21363;-77
2022/11/15 08:03:15;;;;;;;23.15;15.98;;;;;;;3.32;80.93;100244.76;1847670;77;21025;-80
2022/11/15 08:06:01;;;;;;;24.95;18.10;;;;;;;3.42;80.87;100248.02;1861979;76;21157;-77
2022/11/15 08:08:47;;;;;;;26.37;19.60;;;;;;;3.41;80.70;100243.73;1811923;77;21795;-77
2022/11/15 08:11:33;;;;;;;29.55;19.20;;;;;;;3.38;80.97;100238.69;1837971;77;21035;-77
2022/11/15 08:14:18;;;;;;;31.05;19.85;;;;;;;3.33;81.09;100239.85;1826376;77;21011;-77
2022/11/15 08:17:04;;;;;;;32.85;22.85;;;;;;;3.43;81.18;100230.84;1833567;77;20990;-78
2022/11/15 08:19:50;;;;;;;31.68;22.27;;;;;;;3.33;81.55;100226.72;1824906;77;21010;-78
2022/11/15 08:22:36;;;;;;;29.32;20.62;;;;;;;3.27;81.83;100224.54;1807468;78;21188;-77
2022/11/15 08:25:21;;;;;;;25.40;18.45;;;;;;;3.34;81.65;100224.92;1792534;78;20998;-79
2022/11/15 08:28:07;;;;;;;24.18;18.73;;;;;;;3.46;80.99;100224.55;1820843;78;21026;-79
2022/11/15 08:30:52;;;;;;;31.33;21.35;;;;;;;3.46;80.28;100223.23;1832517;78;21053;-78
2022/11/15 08:33:37;;;;;;;29.32;19.15;;;;;;;3.34;79.57;100224.92;1819240;78;21511;-77
2022/11/15 08:36:24;;;;;;;25.37;17.20;;;;;;;3.28;79.61;100227.55;1815337;78;21040;-77
2022/11/15 08:39:12;;;;;;;24.02;16.57;;;;;;;3.34;79.53;100217.05;1836511;77;21153;-83
2022/11/15 08:41:57;;;;;;;26.52;17.37;;;;;;;3.34;79.55;100220.98;1839361;77;21481;-80
2022/11/15 08:44:42;;;;;;;22.85;15.72;;;;;;;3.30;79.17;100216.45;1810903;77;21699;-84
2022/11/15 08:47:28;;;;;;;19.05;14.60;;;;;;;3.23;79.33;100217.83;1839902;75;20986;-84
2022/11/15 08:50:14;;;;;;;20.62;16.27;;;;;;;3.34;78.86;100212.66;1849782;75;21106;-88
2022/11/15 08:53:08;;;;;;;21.50;16.42;;;;;;;3.38;78.44;100209.34;1853177;76;21498;-89
2022/11/15 08:55:55;;;;;;;18.45;14.98;;;;;;;3.23;78.68;100220.94;1856163;75;21013;-84
2022/11/15 08:58:42;;;;;;;22.40;16.17;;;;;;;3.10;79.46;100205.21;1834086;77;21036;-85
2022/11/15 09:01:27;;;;;;;23.95;16.52;;;;;;;3.19;79.51;100199.77;1835776;75;20946;-83
2022/11/15 09:04:12;;;;;;;22.25;16.67;;;;;;;3.16;79.12;100213.95;1795921;78;21255;-84
2022/11/15 09:06:57;;;;;;;18.92;13.65;;;;;;;3.05;79.34;100196.36;1831189;77;21037;-79
2022/11/15 09:09:42;;;;;;;18.48;13.32;;;;;;;2.97;79.47;100201.77;1800712;78;21516;-79
2022/11/15 09:12:29;;;;;;;21.73;16.12;;;;;;;3.01;79.77;100173.88;1846002;77;21615;-82
2022/11/15 09:15:15;;;;;;;22.80;15.93;;;;;;;3.01;79.77;100173.88;1852119;76;21036;-80
2022/11/15 09:18:02;;;;;;;19.35;15.23;;;;;;;3.02;79.91;100178.19;1821305;78;21025;-81
2022/11/15 09:20:47;;;;;;;22.93;14.85;;;;;;;3.15;79.75;100157.16;1824408;77;21064;-87
2022/11/15 09:23:31;;;;;;;23.98;15.93;;;;;;;3.29;79.47;100165.35;1845257;77;20982;-80
2022/11/15 09:26:17;;;;;;;19.35;14.87;;;;;;;3.29;79.47;100165.35;1814596;78;20985;-82
2022/11/15 09:29:02;;;;;;;24.40;15.93;;;;;;;3.28;79.27;100147.45;1807869;77;21623;-81
2022/11/15 09:31:47;;;;;;;20.65;15.15;;;;;;;3.27;79.51;100151.02;1814835;77;21160;-83
2022/11/15 09:34:34;;;;;;;20.23;14.38;;;;;;;3.43;79.54;100131.52;1817349;78;21006;-84
2022/11/15 09:37:19;;;;;;;18.15;13.90;;;;;;;3.43;79.54;100131.52;1814132;78;21133;-89
2022/11/15 09:40:05;;;;;;;22.67;15.85;;;;;;;3.45;79.32;100130.92;1822429;78;21071;-84
2022/11/15 09:43:26;;;;;;;20.77;16.23;;;;;;;3.39;79.55;100127.44;1791412;79;20988;-84
2022/11/15 09:46:23;;;;;;;24.00;14.87;;;;;;;3.34;79.88;100109.38;1812662;78;21246;-82
2022/11/15 09:49:08;;;;;;;22.30;15.65;;;;;;;3.47;79.88;100106.20;1815936;77;21053;-81
2022/11/15 09:51:47;;;;;;;26.10;17.60;;;;;;;3.52;79.88;100099.31;1826361;77;20965;-81
2022/11/15 09:54:36;;;;;;;24.37;16.73;;;;;;;3.50;79.99;100109.11;1800158;78;21020;-87
2022/11/15 09:57:18;;;;;;;20.75;15.35;;;;;;;3.48;80.27;100104.44;1793794;79;21017;-82
2022/11/15 09:59:56;;;;;;;24.55;18.30;;;;;;;3.52;80.33;100094.06;1783674;79;21121;-81
2022/11/15 10:03:01;;;;;;;27.05;17.25;;;;;;;3.61;80.20;100081.56;1769498;79;20978;-78
2022/11/15 10:05:31;;;;;;;23.52;17.15;;;;;;;3.58;80.49;100076.53;1803299;78;21064;-85
2022/11/15 10:08:07;;;;;;;25.35;17.73;;;;;;;3.56;80.57;100073.17;1800575;78;21512;-83
2022/11/15 10:10:47;;;;;;;23.02;16.65;;;;;;;3.58;80.74;100064.70;1789497;79;21006;-83
2022/11/15 10:13:23;;;;;;;23.38;17.40;;;;;;;3.71;80.46;100052.31;1795915;80;21739;-82
2022/11/15 10:15:51;;;;;;;24.40;17.70;;;;;;;3.71;80.46;100052.31;1794130;78;21037;-85
2022/11/15 10:18:28;;;;;;;22.85;16.48;;;;;;;3.79;80.79;100057.48;1786522;79;21003;-83
2022/11/15 10:20:59;;;;;;;23.27;17.55;;;;;;;3.84;80.53;100051.38;1797686;79;20970;-86
2022/11/15 10:23:26;;;;;;;23.73;16.42;;;;;;;3.84;80.23;100046.94;1781688;78;21045;-82
2022/11/15 10:25:55;;;;;;;28.00;19.45;;;;;;;3.92;80.11;100039.78;1779576;78;21045;-83
2022/11/15 10:28:31;;;;;;;25.20;18.45;;;;;;;3.94;80.06;100035.27;1799692;78;21001;-85
2022/11/15 10:31:04;;;;;;;26.52;18.10;;;;;;;3.90;80.17;100024.61;1777371;79;21475;-87
2022/11/15 10:33:37;;;;;;;25.27;17.95;;;;;;;3.87;80.25;100022.23;1810828;78;21147;-83
2022/11/15 10:36:15;;;;;;;25.07;17.67;;;;;;;3.87;80.27;100016.49;1791271;79;21032;-85
2022/11/15 10:38:54;;;;;;;27.07;18.45;;;;;;;4.00;80.12;100014.22;1800585;78;21203;-81
2022/11/15 10:41:34;;;;;;;27.87;19.23;;;;;;;4.05;79.96;100010.28;1812282;76;20969;-81
2022/11/15 10:44:21;;;;;;;25.88;18.17;;;;;;;4.03;80.06;99996.91;1837322;77;21019;-88
2022/11/15 10:47:02;;;;;;;27.50;19.62;;;;;;;4.03;80.14;99993.79;1817803;78;21535;-81
2022/11/15 10:49:30;;;;;;;27.32;16.87;;;;;;;4.05;80.03;99991.88;1792647;78;21005;-79
2022/11/15 10:52:19;;;;;;;26.55;18.42;;;;;;;4.14;79.92;99993.79;1767991;79;21088;-80
2022/11/15 10:54:52;;;;;;;28.02;18.70;;;;;;;4.24;79.62;99979.44;1787649;79;21128;-81
2022/11/15 10:57:35;;;;;;;26.70;19.55;;;;;;;4.24;79.72;99970.23;1803542;78;20994;-82
2022/11/15 11:00:21;;;;;;;27.20;19.42;;;;;;;4.25;79.67;99966.66;1812323;77;21035;-82
2022/11/15 11:03:01;;;;;;;34.60;20.17;;;;;;;4.26;79.66;99962.22;1784530;80;20970;-82
2022/11/15 11:05:36;;;;;;;29.92;19.40;;;;;;;4.27;79.70;99951.59;1775138;80;21137;-80
2022/11/15 11:08:09;;;;;;;30.52;19.73;;;;;;;4.41;79.54;99949.65;1786249;78;21329;-79
2022/11/15 11:10:37;;;;;;;29.87;21.50;;;;;;;4.40;79.52;99946.65;1779330;79;21267;-80
2022/11/15 11:13:31;;;;;;;33.85;23.47;;;;;;;4.33;79.59;99931.86;1787540;79;21129;-83
2022/11/15 11:16:12;;;;;;;33.02;21.87;;;;;;;4.36;79.77;99930.77;1790071;79;21041;-82
2022/11/15 11:18:59;;;;;;;30.72;21.87;;;;;;;4.40;79.95;99928.23;1792942;78;21577;-83
2022/11/15 11:21:49;;;;;;;27.85;20.17;;;;;;;4.53;79.66;99921.02;1781737;79;21059;-82
2022/11/15 11:24:31;;;;;;;32.08;22.73;;;;;;;4.54;79.59;99913.50;1784399;79;21626;-82
2022/11/15 11:27:45;;;;;;;31.62;21.48;;;;;;;4.50;79.81;99906.79;1779050;79;21034;-78
2022/11/15 11:30:40;;;;;;;31.80;20.97;;;;;;;4.49;79.75;99899.38;1786241;79;21056;-81
2022/11/15 11:33:33;;;;;;;26.87;19.48;;;;;;;4.51;79.82;99889.56;1809442;78;21199;-79
2022/11/15 11:36:23;;;;;;;28.02;20.90;;;;;;;4.65;79.59;99883.66;1788514;79;21088;-76
2022/11/15 11:39:05;;;;;;;27.55;20.68;;;;;;;4.65;79.52;99883.17;1794949;79;21119;-81
2022/11/15 11:42:11;;;;;;;26.33;19.95;;;;;;;4.62;79.64;99875.55;1749694;78;21040;-79
2022/11/15 11:45:08;;;;;;;29.02;19.95;;;;;;;4.63;79.61;99875.88;1821330;78;21500;-82
2022/11/15 11:48:00;;;;;;;25.77;19.75;;;;;;;4.71;79.54;99871.30;1820328;78;21812;-82
2022/11/15 11:50:27;;;;;;;25.82;19.95;;;;;;;4.75;79.53;99870.57;1795330;78;21080;-86
2022/11/15 11:53:02;;;;;;;29.70;21.27;;;;;;;4.71;79.54;99876.11;1806978;77;21505;-79
2022/11/15 11:55:36;;;;;;;27.37;20.15;;;;;;;4.65;79.69;99864.75;1829452;76;20990;-82
2022/11/15 11:58:16;;;;;;;29.30;21.15;;;;;;;4.69;79.81;99860.06;1851086;77;21059;-81
2022/11/15 12:00:54;;;;;;;29.07;22.13;;;;;;;4.81;79.62;99863.02;1852982;77;21142;-82
2022/11/15 12:03:49;;;;;;;30.43;22.17;;;;;;;4.82;79.69;99856.77;1847901;77;21041;-82
2022/11/15 12:06:33;;;;;;;31.40;22.17;;;;;;;4.86;79.49;99853.41;1802463;78;21036;-79
2022/11/15 12:09:09;;;;;;;29.85;20.45;;;;;;;4.85;79.34;99846.48;1811554;78;21080;-81
2022/11/15 12:12:11;;;;;;;29.10;21.02;;;;;;;4.90;79.31;99833.27;1814865;78;21307;-80
2022/11/15 12:15:00;;;;;;;30.23;21.90;;;;;;;5.00;79.10;99835.13;1812778;79;21930;-79
2022/11/15 12:17:32;;;;;;;31.17;22.67;;;;;;;4.99;79.18;99833.47;1811403;79;21013;-79
2022/11/15 12:20:03;;;;;;;29.70;22.35;;;;;;;4.95;79.28;99820.22;1809873;79;21018;-80
2022/11/15 12:23:03;;;;;;;29.25;20.55;;;;;;;4.92;79.41;99827.88;1806783;79;21038;-81
2022/11/15 12:25:53;;;;;;;27.22;20.60;;;;;;;4.97;79.39;99813.85;1812066;79;21036;-80
2022/11/15 12:28:37;;;;;;;27.60;21.25;;;;;;;5.08;79.18;99801.92;1801587;79;21674;-82
2022/11/15 12:31:36;;;;;;;28.55;21.80;;;;;;;5.08;79.17;99802.38;1818313;77;21073;-81
2022/11/15 12:34:21;;;;;;;31.35;22.17;;;;;;;5.04;79.26;99798.34;1822436;78;21600;-80
2022/11/15 12:36:50;;;;;;;28.60;20.70;;;;;;;5.00;79.40;99793.82;1858700;77;21485;-80
2022/11/15 12:39:17;;;;;;;29.20;22.87;;;;;;;5.05;79.42;99790.33;1855465;77;21012;-80
2022/11/15 12:41:49;;;;;;;26.85;21.12;;;;;;;5.16;79.22;99790.73;1824663;76;21130;-79
2022/11/15 12:44:40;;;;;;;30.50;22.60;;;;;;;5.17;79.12;99784.48;1807696;77;21565;-81
2022/11/15 12:47:25;;;;;;;32.20;22.13;;;;;;;5.15;79.12;99787.73;1837494;77;21067;-80
2022/11/15 12:49:52;;;;;;;32.33;22.87;;;;;;;5.12;79.30;99783.58;1847350;77;20966;-81
2022/11/15 12:52:18;;;;;;;28.45;21.20;;;;;;;5.14;79.38;99787.40;1823825;78;21313;-80
2022/11/15 12:54:57;;;;;;;27.77;21.15;;;;;;;5.24;79.23;99783.00;1829160;78;21261;-80
2022/11/15 12:57:33;;;;;;;28.87;21.05;;;;;;;5.38;78.93;99775.70;1828340;78;21072;-80
2022/11/15 13:00:21;;;;;;;29.80;21.30;;;;;;;5.42;78.70;99780.55;1820756;78;21033;-81
2022/11/15 13:02:48;;;;;;;29.42;21.90;;;;;;;5.41;78.71;99772.78;1816891;78;21028;-79
2022/11/15 13:05:22;;;;;;;27.87;22.48;;;;;;;5.38;78.77;99771.75;1814422;79;21130;-81
2022/11/15 13:07:57;;;;;;;29.12;21.45;;;;;;;5.38;78.80;99770.42;1817459;78;21198;-81
2022/11/15 13:10:32;;;;;;;26.93;21.57;;;;;;;5.49;78.64;99763.25;1810987;77;20989;-81
2022/11/15 13:13:07;;;;;;;27.02;21.82;;;;;;;5.58;78.36;99762.94;1838088;77;21021;-81
2022/11/15 13:15:59;;;;;;;28.12;21.62;;;;;;;5.58;78.43;99757.67;1816606;79;20974;-81